createdAt,value
2019-03-21T00:00:03.460Z,97848.88
2019-03-21T00:02:37.908Z,97846.23
2019-03-21T00:05:12.518Z,97848.24
2019-03-21T00:07:44.570Z,97854.09
2019-03-21T00:10:44.261Z,97854.79
2019-03-21T00:13:17.560Z,97848.15
2019-03-21T00:15:49.595Z,97844.22
2019-03-21T00:18:23.529Z,97848.44
2019-03-21T00:20:57.539Z,97845.11
2019-03-21T00:23:29.896Z,97842.27
2019-03-21T00:26:02.003Z,97843.45
2019-03-21T00:28:37.213Z,97843.79
2019-03-21T00:31:11.708Z,97848.27
2019-03-21T00:33:46.844Z,97846.52
2019-03-21T00:36:19.677Z,97850.28
2019-03-21T00:38:52.635Z,97847.28
2019-03-21T00:41:25.605Z,97854.84
2019-03-21T00:43:59.087Z,97846.49
2019-03-21T00:46:32.828Z,97845.23
2019-03-21T00:49:06.498Z,97843.55
2019-03-21T00:51:42.405Z,97835.53
2019-03-21T00:54:16.730Z,97837.19
2019-03-21T00:56:49.697Z,97832.55
2019-03-21T00:59:22.925Z,97840.12
2019-03-21T01:01:58.450Z,97840.59
2019-03-21T01:04:34.221Z,97842.48
2019-03-21T01:07:08.002Z,97838.86
2019-03-21T01:09:41.226Z,97843.16
2019-03-21T01:12:13.971Z,97844.27
2019-03-21T01:14:46.878Z,97846.78
2019-03-21T01:17:19.881Z,97847.98
2019-03-21T01:19:53.012Z,97847.91
2019-03-21T01:22:26.327Z,97845.91
2019-03-21T01:24:59.842Z,97851.00
2019-03-21T01:27:31.875Z,97848.00
2019-03-21T01:30:10.360Z,97844.14
2019-03-21T01:32:43.936Z,97833.69
2019-03-21T01:35:18.594Z,97835.37
2019-03-21T01:37:52.831Z,97829.45
2019-03-21T01:40:26.712Z,97829.45
2019-03-21T01:43:00.846Z,97830.63
2019-03-21T01:45:34.979Z,97827.22
2019-03-21T01:48:07.945Z,97828.73
2019-03-21T01:50:41.004Z,97823.34
2019-03-21T01:53:14.322Z,97835.56
2019-03-21T01:55:46.095Z,97833.87
2019-03-21T01:58:21.179Z,97825.89
2019-03-21T02:00:54.480Z,97828.91
2019-03-21T02:03:28.965Z,97822.52
2019-03-21T02:06:01.234Z,97823.44
2019-03-21T02:08:32.983Z,97823.38
2019-03-21T02:11:05.047Z,97815.34
2019-03-21T02:13:39.560Z,97815.27
2019-03-21T02:16:11.981Z,97810.95
2019-03-21T02:18:44.305Z,97819.77
2019-03-21T02:21:17.139Z,97822.30
2019-03-21T02:23:49.103Z,97828.98
2019-03-21T02:26:23.220Z,97827.72
2019-03-21T02:28:57.031Z,97820.55
2019-03-21T02:31:31.058Z,97816.81
2019-03-21T02:34:05.078Z,97812.56
2019-03-21T02:36:39.117Z,97812.67
2019-03-21T02:39:11.320Z,97807.69
2019-03-21T02:41:45.158Z,97807.73
2019-03-21T02:44:17.279Z,97809.49
2019-03-21T02:46:50.086Z,97793.47
2019-03-21T02:49:22.261Z,97791.31
2019-03-21T02:51:55.513Z,97792.17
2019-03-21T02:54:27.281Z,97788.72
2019-03-21T02:56:59.401Z,97778.92
2019-03-21T02:59:32.189Z,97780.15
2019-03-21T03:02:06.246Z,97777.27
2019-03-21T03:04:39.974Z,97780.23
2019-03-21T03:07:12.425Z,97774.37
2019-03-21T03:09:44.353Z,97777.36
2019-03-21T03:12:17.347Z,97774.45
2019-03-21T03:14:51.608Z,97774.06
2019-03-21T03:17:26.279Z,97764.97
2019-03-21T03:20:00.709Z,97767.58
2019-03-21T03:22:34.600Z,97771.73
2019-03-21T03:25:07.266Z,97766.18
2019-03-21T03:27:41.305Z,97772.00
2019-03-21T03:30:17.615Z,97776.70
2019-03-21T03:32:51.271Z,97780.05
2019-03-21T03:35:24.508Z,97778.77
2019-03-21T03:38:05.882Z,97779.23
2019-03-21T03:41:05.739Z,97784.19
2019-03-21T03:44:07.730Z,97781.64
2019-03-21T03:47:05.689Z,97779.16
2019-03-21T03:49:52.405Z,97780.86
2019-03-21T03:52:50.955Z,97784.61
2019-03-21T03:55:55.158Z,97780.77
2019-03-21T03:58:57.215Z,97780.30
2019-03-21T04:01:59.800Z,97776.95
2019-03-21T04:04:59.747Z,97775.33
2019-03-21T04:07:57.689Z,97774.89
2019-03-21T04:10:55.480Z,97774.85
2019-03-21T04:13:55.363Z,97775.36
2019-03-21T04:16:53.766Z,97778.34
2019-03-21T04:19:59.330Z,97776.26
2019-03-21T04:22:57.016Z,97766.17
2019-03-21T04:26:10.285Z,97768.25
2019-03-21T04:29:07.854Z,97768.72
2019-03-21T04:32:10.122Z,97754.13
2019-03-21T04:35:00.037Z,97753.29
2019-03-21T04:37:36.780Z,97757.07
2019-03-21T04:40:11.557Z,97752.95
2019-03-21T04:42:46.543Z,97755.05
2019-03-21T04:45:21.144Z,97754.98
2019-03-21T04:47:55.487Z,97751.61
2019-03-21T04:50:30.556Z,97758.31
2019-03-21T04:53:02.554Z,97754.97
2019-03-21T04:55:34.302Z,97752.80
2019-03-21T04:58:08.822Z,97756.63
2019-03-21T05:00:41.819Z,97758.19
2019-03-21T05:03:15.307Z,97756.52
2019-03-21T05:05:49.119Z,97766.64
2019-03-21T05:08:23.099Z,97774.67
2019-03-21T05:10:56.860Z,97773.52
2019-03-21T05:13:29.011Z,97766.89
2019-03-21T05:16:02.327Z,97761.42
2019-03-21T05:18:36.927Z,97761.85
2019-03-21T05:21:11.883Z,97773.64
2019-03-21T05:23:45.053Z,97780.36
2019-03-21T05:26:19.077Z,97775.31
2019-03-21T05:28:51.054Z,97781.06
2019-03-21T05:31:27.340Z,97780.17
2019-03-21T05:34:00.073Z,97782.30
2019-03-21T05:36:32.009Z,97784.58
2019-03-21T05:39:07.034Z,97795.95
2019-03-21T05:41:41.325Z,97799.28
2019-03-21T05:44:22.818Z,97805.95
2019-03-21T05:46:57.116Z,97810.45
2019-03-21T05:49:29.251Z,97817.89
2019-03-21T05:52:02.062Z,97824.13
2019-03-21T05:54:36.223Z,97826.38
2019-03-21T05:57:08.107Z,97828.83
2019-03-21T05:59:41.080Z,97822.94
2019-03-21T06:02:14.761Z,97824.67
2019-03-21T06:04:49.295Z,97830.63
2019-03-21T06:07:48.521Z,97830.74
2019-03-21T06:10:20.374Z,97820.99
2019-03-21T06:12:52.214Z,97816.23
2019-03-21T06:15:28.659Z,97817.84
2019-03-21T06:18:36.686Z,97822.77
2019-03-21T06:21:37.788Z,97817.25
2019-03-21T06:24:35.482Z,97814.59
2019-03-21T06:27:15.608Z,97822.91
2019-03-21T06:29:50.379Z,97828.46
2019-03-21T06:32:23.207Z,97820.84
2019-03-21T06:34:57.357Z,97824.05
2019-03-21T06:37:29.346Z,97827.03
2019-03-21T06:40:01.961Z,97821.92
2019-03-21T06:42:39.067Z,97816.69
2019-03-21T06:45:11.496Z,97819.42
2019-03-21T06:47:44.273Z,97820.51
2019-03-21T06:50:17.237Z,97823.27
2019-03-21T06:52:50.238Z,97815.98
2019-03-21T06:55:23.411Z,97822.14
2019-03-21T06:57:57.224Z,97824.53
2019-03-21T07:00:29.424Z,97823.91
2019-03-21T07:03:02.681Z,97818.63
2019-03-21T07:05:35.444Z,97819.31
2019-03-21T07:08:08.325Z,97823.38
2019-03-21T07:10:41.683Z,97827.47
2019-03-21T07:13:16.481Z,97831.66
2019-03-21T07:15:50.413Z,97830.79
2019-03-21T07:18:23.673Z,97831.41
2019-03-21T07:20:57.795Z,97836.72
2019-03-21T07:23:34.270Z,97840.91
2019-03-21T07:26:08.607Z,97838.94
2019-03-21T07:28:42.065Z,97835.78
2019-03-21T07:31:16.309Z,97831.73
2019-03-21T07:33:50.715Z,97840.41
2019-03-21T07:36:26.092Z,97845.86
2019-03-21T07:38:57.485Z,97838.45
2019-03-21T07:41:30.530Z,97834.73
2019-03-21T07:44:02.572Z,97842.18
2019-03-21T07:46:35.679Z,97838.48
2019-03-21T07:49:09.817Z,97840.23
2019-03-21T07:51:41.919Z,97839.19
2019-03-21T07:54:14.684Z,97841.45
2019-03-21T07:56:47.646Z,97837.41
2019-03-21T07:59:20.630Z,97836.48
2019-03-21T08:01:52.538Z,97838.50
2019-03-21T08:04:26.659Z,97844.53
2019-03-21T08:06:58.541Z,97839.45
2019-03-21T08:09:31.963Z,97836.11
2019-03-21T08:12:06.104Z,97837.18
2019-03-21T08:14:38.830Z,97831.89
2019-03-21T08:17:11.830Z,97828.25
2019-03-21T08:19:43.792Z,97827.75
2019-03-21T08:22:16.892Z,97823.72
2019-03-21T08:24:48.657Z,97827.98
2019-03-21T08:27:20.881Z,97821.30
2019-03-21T08:29:53.829Z,97823.66
2019-03-21T08:32:27.861Z,97824.20
2019-03-21T08:35:01.592Z,97820.69
2019-03-21T08:37:38.024Z,97827.35
2019-03-21T08:40:12.183Z,97821.92
2019-03-21T08:42:46.531Z,97829.66
2019-03-21T08:45:20.777Z,97833.36
2019-03-21T08:47:55.251Z,97833.10
2019-03-21T08:50:29.805Z,97831.59
2019-03-21T08:53:02.097Z,97827.45
2019-03-21T08:55:33.926Z,97823.28
2019-03-21T08:58:05.907Z,97819.36
2019-03-21T09:00:37.966Z,97819.48
2019-03-21T09:03:11.973Z,97819.57
2019-03-21T09:05:44.883Z,97817.83
2019-03-21T09:08:19.130Z,97822.14
2019-03-21T09:10:51.108Z,97817.41
2019-03-21T09:13:24.146Z,97817.69
2019-03-21T09:15:57.585Z,97805.56
2019-03-21T09:18:30.939Z,97813.12
2019-03-21T09:21:02.913Z,97811.00
2019-03-21T09:23:35.921Z,97808.61
2019-03-21T09:26:09.181Z,97804.13
2019-03-21T09:28:42.180Z,97803.55
2019-03-21T09:31:15.085Z,97806.57
2019-03-21T09:33:49.142Z,97807.67
2019-03-21T09:36:23.139Z,97804.97
2019-03-21T09:38:56.186Z,97807.30
2019-03-21T09:41:27.942Z,97803.31
2019-03-21T09:44:00.731Z,97798.48
2019-03-21T09:46:34.752Z,97803.55
2019-03-21T09:49:09.231Z,97798.42
2019-03-21T09:51:43.230Z,97799.41
2019-03-21T09:54:16.781Z,97787.14
2019-03-21T09:56:52.793Z,97787.60
2019-03-21T09:59:25.593Z,97792.28
2019-03-21T10:01:58.211Z,97792.83
2019-03-21T10:04:31.891Z,97790.47
2019-03-21T10:07:07.074Z,97793.12
2019-03-21T10:09:40.088Z,97785.47
2019-03-21T10:12:13.284Z,97785.20
2019-03-21T10:14:48.883Z,97782.66
2019-03-21T10:17:21.685Z,97788.59
2019-03-21T10:19:55.434Z,97786.92
2019-03-21T10:22:27.185Z,97783.66
2019-03-21T10:24:59.189Z,97791.66
2019-03-21T10:27:33.442Z,97785.22
2019-03-21T10:30:08.363Z,97784.05
2019-03-21T10:32:41.522Z,97779.42
2019-03-21T10:35:14.213Z,97775.42
2019-03-21T10:37:48.917Z,97771.14
2019-03-21T10:40:23.395Z,97773.36
2019-03-21T10:42:57.416Z,97770.70
2019-03-21T10:45:29.244Z,97769.23
2019-03-21T10:48:02.833Z,97766.53
2019-03-21T10:50:37.721Z,97764.86
2019-03-21T10:53:11.498Z,97757.67
2019-03-21T10:55:44.963Z,97760.49
2019-03-21T10:58:17.489Z,97753.09
2019-03-21T11:00:53.214Z,97749.78
2019-03-21T11:03:27.072Z,97745.78
2019-03-21T11:06:01.559Z,97745.72
2019-03-21T11:08:35.516Z,97743.96
2019-03-21T11:11:09.310Z,97735.02
2019-03-21T11:13:41.459Z,97733.31
2019-03-21T11:16:14.643Z,97731.60
2019-03-21T11:18:47.582Z,97727.30
2019-03-21T11:21:20.603Z,97724.98
2019-03-21T11:23:56.536Z,97716.16
2019-03-21T11:26:29.453Z,97725.66
2019-03-21T11:29:02.357Z,97716.44
2019-03-21T11:31:36.729Z,97715.39
2019-03-21T11:34:08.472Z,97715.16
2019-03-21T11:36:41.082Z,97709.61
2019-03-21T11:39:13.627Z,97701.23
2019-03-21T11:41:45.537Z,97696.30
2019-03-21T11:44:17.671Z,97690.40
2019-03-21T11:46:50.709Z,97691.70
2019-03-21T11:49:23.682Z,97690.41
2019-03-21T11:51:58.249Z,97685.22
2019-03-21T11:54:30.300Z,97679.56
2019-03-21T11:57:03.018Z,97679.74
2019-03-21T11:59:46.469Z,97670.22
2019-03-21T12:02:09.745Z,97662.67
2019-03-21T12:04:41.712Z,97670.07
2019-03-21T12:07:14.672Z,97668.79
2019-03-21T12:09:47.900Z,97657.00
2019-03-21T12:12:19.945Z,97658.38
2019-03-21T12:14:51.679Z,97655.70
2019-03-21T12:17:24.333Z,97646.65
2019-03-21T12:19:56.997Z,97650.16
2019-03-21T12:22:30.970Z,97649.89
2019-03-21T12:25:05.162Z,97647.15
2019-03-21T12:27:41.414Z,97641.22
2019-03-21T12:30:19.308Z,97633.27
2019-03-21T12:32:54.219Z,97633.89
2019-03-21T12:35:28.577Z,97629.25
2019-03-21T12:38:02.533Z,97616.09
2019-03-21T12:40:36.129Z,97620.38
2019-03-21T12:43:09.113Z,97620.55
2019-03-21T12:45:43.766Z,97614.66
2019-03-21T12:48:18.875Z,97605.51
2019-03-21T12:50:51.910Z,97611.93
2019-03-21T12:53:24.262Z,97607.92
2019-03-21T12:55:58.229Z,97604.68
2019-03-21T12:58:34.505Z,97606.11
2019-03-21T13:01:09.143Z,97600.03
2019-03-21T13:03:42.098Z,97598.97
2019-03-21T13:06:14.895Z,97589.35
2019-03-21T13:08:48.105Z,97583.75
2019-03-21T13:11:21.065Z,97577.52
2019-03-21T13:13:54.035Z,97577.13
2019-03-21T13:16:27.304Z,97576.08
2019-03-21T13:18:59.053Z,97570.44
2019-03-21T13:21:34.178Z,97566.03
2019-03-21T13:24:05.991Z,97570.95
2019-03-21T13:26:39.187Z,97569.17
2019-03-21T13:29:12.163Z,97569.31
2019-03-21T13:31:45.273Z,97564.20
2019-03-21T13:34:19.633Z,97566.48
2019-03-21T13:36:53.290Z,97559.54
2019-03-21T13:39:27.292Z,97550.14
2019-03-21T13:42:00.754Z,97550.27
2019-03-21T13:44:33.701Z,97550.02
2019-03-21T13:47:06.216Z,97551.45
2019-03-21T13:49:41.012Z,97549.55
2019-03-21T13:52:15.927Z,97544.61
2019-03-21T13:54:48.928Z,97538.05
2019-03-21T13:57:21.680Z,97540.39
2019-03-21T13:59:57.081Z,97544.69
2019-03-21T14:02:30.100Z,97537.42
2019-03-21T14:05:02.516Z,97535.80
2019-03-21T14:07:38.639Z,97538.63
2019-03-21T14:10:13.912Z,97539.09
2019-03-21T14:12:46.535Z,97532.30
2019-03-21T14:15:19.306Z,97530.25
2019-03-21T14:17:53.393Z,97533.94
2019-03-21T14:20:26.569Z,97522.34
2019-03-21T14:22:59.373Z,97524.84
2019-03-21T14:25:31.398Z,97524.13
2019-03-21T14:28:05.157Z,97528.64
2019-03-21T14:30:39.544Z,97525.62
2019-03-21T14:33:11.575Z,97524.98
2019-03-21T14:35:43.520Z,97524.45
2019-03-21T14:38:25.812Z,97521.66
2019-03-21T14:40:51.667Z,97510.55
2019-03-21T14:43:25.599Z,97511.77
2019-03-21T14:45:57.357Z,97514.63
2019-03-21T14:48:29.416Z,97509.48
2019-03-21T14:51:02.966Z,97506.95
2019-03-21T14:53:36.811Z,97504.95
2019-03-21T14:56:09.410Z,97507.01
2019-03-21T14:58:43.623Z,97509.81
2019-03-21T15:01:15.376Z,97501.37
2019-03-21T15:03:49.346Z,97508.33
2019-03-21T15:06:25.559Z,97512.76
2019-03-21T15:08:57.601Z,97512.51
2019-03-21T15:11:30.939Z,97510.26
2019-03-21T15:14:02.809Z,97501.98
2019-03-21T15:16:35.831Z,97505.30
2019-03-21T15:19:10.780Z,97505.50
2019-03-21T15:21:44.997Z,97510.30
2019-03-21T15:24:18.624Z,97512.84
2019-03-21T15:26:51.488Z,97509.98
2019-03-21T15:29:23.807Z,97501.53
2019-03-21T15:31:57.934Z,97503.52
2019-03-21T15:34:32.728Z,97501.66
2019-03-21T15:37:05.762Z,97500.22
2019-03-21T15:39:37.951Z,97494.78
2019-03-21T15:42:11.730Z,97496.08
2019-03-21T15:44:45.608Z,97498.09
2019-03-21T15:47:18.011Z,97499.50
2019-03-21T15:49:51.492Z,97497.98
2019-03-21T15:52:23.810Z,97505.39
2019-03-21T15:54:56.785Z,97504.80
2019-03-21T15:57:31.928Z,97505.90
2019-03-21T16:00:06.614Z,97511.33
2019-03-21T16:02:40.855Z,97511.30
2019-03-21T16:05:14.976Z,97510.56
2019-03-21T16:07:48.998Z,97511.21
2019-03-21T16:10:22.290Z,97502.41
2019-03-21T16:12:55.122Z,97509.53
2019-03-21T16:15:27.309Z,97512.68
2019-03-21T16:17:59.807Z,97509.88
2019-03-21T16:20:34.029Z,97506.73
2019-03-21T16:23:06.229Z,97512.64
2019-03-21T16:25:39.429Z,97510.65
2019-03-21T16:28:12.026Z,97515.10
2019-03-21T16:30:46.451Z,97515.36
2019-03-21T16:33:21.154Z,97518.34
2019-03-21T16:35:54.972Z,97511.30
2019-03-21T16:38:27.664Z,97518.14
2019-03-21T16:44:17.989Z,97520.43
2019-03-21T16:46:52.254Z,97527.79
2019-03-21T16:49:28.818Z,97525.69
2019-03-21T16:52:02.191Z,97521.99
2019-03-21T16:54:34.143Z,97531.07
2019-03-21T16:57:07.457Z,97538.32
2019-03-21T16:59:42.759Z,97539.21
2019-03-21T17:02:16.891Z,97539.76
2019-03-21T17:04:51.105Z,97540.53
2019-03-21T17:07:24.409Z,97549.24
2019-03-21T17:09:57.972Z,97539.80
2019-03-21T17:12:30.556Z,97548.03
2019-03-21T17:15:02.686Z,97549.88
2019-03-21T17:17:38.977Z,97544.13
2019-03-21T17:20:12.967Z,97544.28
2019-03-21T17:22:45.224Z,97549.16
2019-03-21T17:25:18.388Z,97556.75
2019-03-21T17:27:54.716Z,97558.40
2019-03-21T17:30:28.282Z,97552.50
2019-03-21T17:33:02.383Z,97555.49
2019-03-21T17:35:34.241Z,97558.16
2019-03-21T17:44:44.147Z,97570.89
2019-03-21T17:47:18.800Z,97564.78
2019-03-21T17:49:52.023Z,97570.30
2019-03-21T17:52:26.300Z,97569.47
2019-03-21T17:55:00.461Z,97578.33
2019-03-21T17:57:35.031Z,97574.47
2019-03-21T18:00:13.025Z,97575.70
2019-03-21T18:02:46.820Z,97575.02
2019-03-21T18:05:55.517Z,97586.07
2019-03-21T18:08:30.191Z,97581.81
2019-03-21T18:11:03.059Z,97579.80
2019-03-21T18:13:36.951Z,97586.20
2019-03-21T18:16:10.405Z,97586.44
2019-03-21T18:18:42.503Z,97581.91
2019-03-21T18:21:15.483Z,97584.55
2019-03-21T18:23:48.726Z,97591.66
2019-03-21T18:26:21.971Z,97590.36
2019-03-21T18:28:54.577Z,97592.05
2019-03-21T18:31:27.485Z,97590.30
2019-03-21T18:34:00.703Z,97598.52
2019-03-21T18:36:33.672Z,97599.87
2019-03-21T18:39:08.278Z,97603.33
2019-03-21T18:41:42.741Z,97593.91
2019-03-21T18:44:15.547Z,97603.41
2019-03-21T18:46:48.572Z,97604.09
2019-03-21T18:49:23.490Z,97607.16
2019-03-21T18:51:56.606Z,97601.83
2019-03-21T18:54:30.881Z,97604.53
2019-03-21T18:57:04.465Z,97603.98
2019-03-21T18:59:36.662Z,97603.19
2019-03-21T19:02:10.753Z,97601.07
2019-03-21T19:04:45.948Z,97603.30
2019-03-21T19:07:19.568Z,97602.92
2019-03-21T19:09:52.627Z,97602.34
2019-03-21T19:12:25.238Z,97608.84
2019-03-21T19:14:59.562Z,97608.44
2019-03-21T19:17:37.877Z,97602.45
2019-03-21T19:20:10.644Z,97607.87
2019-03-21T19:22:42.707Z,97600.47
2019-03-21T19:25:19.605Z,97606.37
2019-03-21T19:27:52.844Z,97606.58
2019-03-21T19:30:25.383Z,97609.02
2019-03-21T19:32:59.091Z,97603.32
2019-03-21T19:35:33.636Z,97600.71
2019-03-21T19:38:07.704Z,97601.81
2019-03-21T19:40:39.980Z,97601.55
2019-03-21T19:43:12.417Z,97596.05
2019-03-21T19:45:45.853Z,97602.50
2019-03-21T19:48:18.069Z,97592.63
2019-03-21T19:50:51.975Z,97595.25
2019-03-21T19:53:24.962Z,97596.69
2019-03-21T19:56:09.067Z,97587.70
2019-03-21T19:58:43.041Z,97597.66
2019-03-21T20:01:15.806Z,97594.34
2019-03-21T20:03:47.982Z,97594.54
2019-03-21T20:06:22.810Z,97596.81
2019-03-21T20:08:58.614Z,97593.36
2019-03-21T20:11:34.637Z,97598.29
2019-03-21T20:14:09.730Z,97600.15
2019-03-21T20:16:42.130Z,97601.48
2019-03-21T20:19:16.052Z,97603.02
2019-03-21T20:21:48.446Z,97601.31
2019-03-21T20:24:23.227Z,97607.42
2019-03-21T20:26:55.151Z,97604.28
2019-03-21T20:29:27.480Z,97609.90
2019-03-21T20:32:01.172Z,97613.32
2019-03-21T20:34:33.190Z,97615.67
2019-03-21T20:37:06.297Z,97611.30
2019-03-21T20:39:39.237Z,97610.58
2019-03-21T20:42:12.481Z,97619.84
2019-03-21T20:44:45.143Z,97618.23
2019-03-21T20:47:18.179Z,97617.17
2019-03-21T20:49:51.565Z,97619.75
2019-03-21T20:52:26.299Z,97624.41
2019-03-21T20:55:00.406Z,97622.70
2019-03-21T20:57:32.179Z,97620.03
2019-03-21T21:00:07.609Z,97616.65
2019-03-21T21:02:42.465Z,97616.59
2019-03-21T21:05:15.616Z,97622.95
2019-03-21T21:07:49.028Z,97620.91
2019-03-21T21:10:21.863Z,97618.66
2019-03-21T21:12:54.485Z,97616.61
2019-03-21T21:15:26.988Z,97617.77
2019-03-21T21:18:00.246Z,97617.83
2019-03-21T21:20:33.484Z,97623.18
2019-03-21T21:23:06.368Z,97620.33
2019-03-21T21:25:40.226Z,97619.06
2019-03-21T21:28:13.918Z,97616.98
2019-03-21T21:30:47.704Z,97622.37
2019-03-21T21:33:22.822Z,97622.37
2019-03-21T21:36:22.865Z,97619.61
2019-03-21T21:38:55.950Z,97616.08
2019-03-21T21:41:27.773Z,97620.27
2019-03-21T21:44:00.522Z,97622.67
2019-03-21T21:46:33.938Z,97616.34
2019-03-21T21:49:07.533Z,97619.63
2019-03-21T21:51:41.432Z,97622.14
2019-03-21T21:54:28.161Z,97618.14
2019-03-21T21:57:00.775Z,97619.47
2019-03-21T21:59:32.586Z,97621.22
2019-03-21T22:02:06.704Z,97618.20
2019-03-21T22:04:40.763Z,97609.83
2019-03-21T22:07:16.536Z,97608.44
2019-03-21T22:09:48.869Z,97610.52
2019-03-21T22:12:21.670Z,97603.55
2019-03-21T22:14:53.824Z,97607.44
2019-03-21T22:17:27.857Z,97599.08
2019-03-21T22:20:02.436Z,97602.03
2019-03-21T22:22:42.713Z,97600.16
2019-03-21T22:25:16.698Z,97600.00
2019-03-21T22:27:48.429Z,97605.25
2019-03-21T22:30:21.727Z,97599.63
2019-03-21T22:32:56.333Z,97603.81
2019-03-21T22:35:30.768Z,97601.92
2019-03-21T22:38:03.931Z,97600.16
2019-03-21T22:40:36.940Z,97594.02
2019-03-21T22:43:10.000Z,97600.01
2019-03-21T22:45:44.556Z,97599.16
2019-03-21T22:48:19.100Z,97586.35
2019-03-21T22:50:51.843Z,97591.97
2019-03-21T22:53:24.857Z,97591.82
2019-03-21T22:55:56.818Z,97591.13
2019-03-21T22:58:32.012Z,97591.23
2019-03-21T23:01:04.125Z,97594.61
2019-03-21T23:03:37.960Z,97595.00
2019-03-21T23:06:09.745Z,97591.66
2019-03-21T23:08:43.652Z,97588.87
2019-03-21T23:11:15.785Z,97592.73
2019-03-21T23:14:19.730Z,97585.37
2019-03-21T23:16:52.456Z,97585.37
2019-03-21T23:19:27.009Z,97588.13
2019-03-21T23:22:00.849Z,97587.38
2019-03-21T23:24:34.271Z,97589.83
2019-03-21T23:27:07.002Z,97584.53
2019-03-21T23:29:38.974Z,97592.77
2019-03-21T23:32:12.845Z,97588.75
2019-03-21T23:34:48.296Z,97589.02
2019-03-21T23:37:22.705Z,97585.42
2019-03-21T23:39:56.173Z,97583.17
2019-03-21T23:42:31.111Z,97588.77
2019-03-21T23:45:03.569Z,97581.56
2019-03-21T23:47:40.131Z,97586.55
2019-03-21T23:50:14.138Z,97581.73
2019-03-21T23:52:47.280Z,97582.48
2019-03-21T23:55:21.564Z,97584.80
2019-03-21T23:57:58.248Z,97582.20
